Observation data for Post on 12/08/2019      Previous  Date       Current Mesonet Observations  Soil Data  Daily Summary Page  Observations in Plain Language
KPT1 080600Z 17007KT 12/02 A3002 RMK A01 T01180021  RH  052%=      5-min Rain = 0
KPT1 080605Z 17007KT 12/02 A3002 RMK A01 T01160021  RH  053%=      5-min Rain = 0
KPT1 080610Z 17007KT 12/02 A3001 RMK A01 T01150021  RH  053%=      5-min Rain = 0
KPT1 080615Z 17006KT 11/02 A3002 RMK A01 T01140021  RH  054%=      5-min Rain = 0
KPT1 080620Z 17005KT 11/02 A3001 RMK A01 T01120021  RH  054%=      5-min Rain = 0
KPT1 080625Z 18005KT 11/02 A3001 RMK A01 T01100021  RH  055%=      5-min Rain = 0
KPT1 080630Z 18005KT 11/02 A3001 RMK A01 T01110021  RH  055%=      5-min Rain = 0
KPT1 080635Z 18005KT 11/02 A3001 RMK A01 T01110021  RH  054%=      5-min Rain = 0
KPT1 080640Z 18005KT 11/02 A30 RMK A01 T01100021  RH  055%=      5-min Rain = 0
KPT1 080645Z 18005KT 11/02 A30 RMK A01 T01090021  RH  055%=      5-min Rain = 0
KPT1 080650Z 18005KT 11/02 A30 RMK A01 T01070021  RH  056%=      5-min Rain = 0
KPT1 080655Z 18005KT 11/02 A30 RMK A01 T01070020  RH  056%=      5-min Rain = 0
KPT1 080700Z 18006KT 11/02 A30 RMK A01 T01060021  RH  056%=      5-min Rain = 0
KPT1 080705Z 19006KT 11/02 A2999 RMK A01 T01070021  RH  056%=      5-min Rain = 0
KPT1 080710Z 19006KT 11/02 A2999 RMK A01 T01070021  RH  056%=      5-min Rain = 0
KPT1 080715Z 19006KT 11/02 A2999 RMK A01 T01050021  RH  057%=      5-min Rain = 0
KPT1 080720Z 19006KT 10/02 A2998 RMK A01 T01040021  RH  057%=      5-min Rain = 0
KPT1 080725Z 20007KT 11/02 A2998 RMK A01 T01050021  RH  057%=      5-min Rain = 0
KPT1 080730Z 20007KT 11/02 A2998 RMK A01 T01060021  RH  057%=      5-min Rain = 0
KPT1 080735Z 20007KT 11/02 A2997 RMK A01 T01050021  RH  057%=      5-min Rain = 0
KPT1 080740Z 20009KT 11/02 A2997 RMK A01 T01060021  RH  057%=      5-min Rain = 0
KPT1 080745Z 20009KT 10/02 A2997 RMK A01 T01040021  RH  057%=      5-min Rain = 0
KPT1 080750Z 20010G15KT 10/02 A2997 RMK A01 T01040021  RH  057%=      5-min Rain = 0
KPT1 080755Z 21011KT 10/02 A2996 RMK A01 T01020021  RH  058%=      5-min Rain = 0
KPT1 080800Z 21009G14KT 10/02 A2996 RMK A01 T01000021  RH  059%=      5-min Rain = 0
KPT1 080805Z 21009G15KT 10/02 A2996 RMK A01 T00990021  RH  060%=      5-min Rain = 0
KPT1 080810Z 22009G14KT 10/02 A2996 RMK A01 T00990022  RH  060%=      5-min Rain = 0
KPT1 080815Z 22009KT 10/02 A2996 RMK A01 T01000022  RH  059%=      5-min Rain = 0
KPT1 080820Z 22011G16KT 10/02 A2996 RMK A01 T01020022  RH  058%=      5-min Rain = 0
KPT1 080825Z 22012G18KT 10/02 A2996 RMK A01 T01030022  RH  058%=      5-min Rain = 0
KPT1 080830Z 22014G19KT 10/02 A2996 RMK A01 T01040022  RH  058%=      5-min Rain = 0
KPT1 080835Z 23014KT 10/02 A2995 RMK A01 T01030022  RH  058%=      5-min Rain = 0
KPT1 080840Z 23014KT 10/02 A2995 RMK A01 T01010022  RH  059%=      5-min Rain = 0
KPT1 080845Z 23014G19KT 10/02 A2995 RMK A01 T01010023  RH  059%=      5-min Rain = 0
KPT1 080850Z 23014G19KT 10/02 A2995 RMK A01 T01010022  RH  059%=      5-min Rain = 0
KPT1 080855Z 24014KT 10/02 A2995 RMK A01 T01010023  RH  059%=      5-min Rain = 0
KPT1 080900Z 24015G20KT 10/02 A2995 RMK A01 T00990023  RH  060%=      5-min Rain = 0
KPT1 080905Z 24015G20KT 10/02 A2995 RMK A01 T00970023  RH  061%=      5-min Rain = 0
KPT1 080910Z 24015KT 10/02 A2996 RMK A01 T00970023  RH  061%=      5-min Rain = 0
KPT1 080915Z 24014G20KT 10/02 A2995 RMK A01 T00960023  RH  061%=      5-min Rain = 0
KPT1 080920Z 24015KT 10/02 A2995 RMK A01 T00960022  RH  061%=      5-min Rain = 0
KPT1 080925Z 24016KT 10/02 A2995 RMK A01 T00960022  RH  061%=      5-min Rain = 0
KPT1 080930Z 24016G21KT 10/02 A2995 RMK A01 T00970022  RH  061%=      5-min Rain = 0
KPT1 080935Z 24016G21KT 10/02 A2995 RMK A01 T00980022  RH  060%=      5-min Rain = 0
KPT1 080940Z 24016G21KT 10/02 A2996 RMK A01 T01000022  RH  059%=      5-min Rain = 0
KPT1 080945Z 24016KT 10/02 A2995 RMK A01 T01010022  RH  059%=      5-min Rain = 0
KPT1 080950Z 24015G20KT 10/02 A2995 RMK A01 T01010022  RH  059%=      5-min Rain = 0
KPT1 080955Z 23013G18KT 10/02 A2994 RMK A01 T01030022  RH  058%=      5-min Rain = 0
KPT1 081000Z 23014G19KT 10/02 A2994 RMK A01 T01030022  RH  058%=      5-min Rain = 0
KPT1 081005Z 24015G21KT 10/02 A2995 RMK A01 T01030022  RH  058%=      5-min Rain = 0
KPT1 081010Z 23014G20KT 10/02 A2995 RMK A01 T01010022  RH  059%=      5-min Rain = 0
KPT1 081015Z 23015KT 10/02 A2995 RMK A01 T01010022  RH  059%=      5-min Rain = 0
KPT1 081020Z 23015KT 10/02 A2995 RMK A01 T01020021  RH  058%=      5-min Rain = 0
KPT1 081025Z 23013G20KT 10/02 A2995 RMK A01 T01010021  RH  058%=      5-min Rain = 0
KPT1 081030Z 24015KT 10/02 A2995 RMK A01 T01000021  RH  059%=      5-min Rain = 0
KPT1 081035Z 24014KT 10/02 A2995 RMK A01 T00990021  RH  059%=      5-min Rain = 0
KPT1 081040Z 24014G21KT 10/02 A2995 RMK A01 T00990020  RH  059%=      5-min Rain = 0
KPT1 081045Z 24015G21KT 10/02 A2994 RMK A01 T01010020  RH  058%=      5-min Rain = 0
KPT1 081050Z 23013KT 10/02 A2993 RMK A01 T01010020  RH  058%=      5-min Rain = 0
KPT1 081055Z 24013G19KT 10/02 A2993 RMK A01 T01010020  RH  058%=      5-min Rain = 0
KPT1 081100Z 23011KT 10/02 A2993 RMK A01 T01020020  RH  058%=      5-min Rain = 0
KPT1 081105Z 23011KT 10/02 A2993 RMK A01 T01020020  RH  058%=      5-min Rain = 0
KPT1 081110Z 23011KT 10/02 A2993 RMK A01 T01020021  RH  058%=      5-min Rain = 0
KPT1 081115Z 23011KT 10/02 A2993 RMK A01 T01020021  RH  058%=      5-min Rain = 0
KPT1 081120Z 22009KT 10/02 A2992 RMK A01 T01010021  RH  058%=      5-min Rain = 0
KPT1 081125Z 22009KT 10/02 A2992 RMK A01 T01010021  RH  058%=      5-min Rain = 0
KPT1 081130Z 22010KT 10/02 A2992 RMK A01 T01020021  RH  058%=      5-min Rain = 0
KPT1 081135Z 22009KT 10/02 A2992 RMK A01 T01010021  RH  058%=      5-min Rain = 0
KPT1 081140Z 22010KT 10/02 A2992 RMK A01 T01010020  RH  058%=      5-min Rain = 0
KPT1 081145Z 22009KT 10/02 A2992 RMK A01 T01000020  RH  059%=      5-min Rain = 0
KPT1 081150Z 21009KT 10/02 A2992 RMK A01 T00990020  RH  059%=      5-min Rain = 0
KPT1 081155Z 21008KT 10/02 A2992 RMK A01 T00970020  RH  060%=      5-min Rain = 0
KPT1 081200Z 21007KT 09/02 A2992 RMK A01 T00940020  RH  061%=      5-min Rain = 0
KPT1 081205Z 21006KT 09/02 A2992 RMK A01 T00920020  RH  062%=      5-min Rain = 0
KPT1 081210Z 21007KT 09/02 A2992 RMK A01 T00930020  RH  061%=      5-min Rain = 0
KPT1 081215Z 21007KT 09/02 A2992 RMK A01 T00940020  RH  061%=      5-min Rain = 0
KPT1 081220Z 21006KT 09/02 A2992 RMK A01 T00940020  RH  061%=      5-min Rain = 0
KPT1 081225Z 21006KT 09/02 A2992 RMK A01 T00940020  RH  061%=      5-min Rain = 0
KPT1 081230Z 20005KT 09/02 A2992 RMK A01 T00930020  RH  061%=      5-min Rain = 0
KPT1 081235Z 21006G11KT 09/02 A2992 RMK A01 T00930021  RH  062%=      5-min Rain = 0
KPT1 081240Z 22007KT 09/02 A2993 RMK A01 T00940021  RH  061%=      5-min Rain = 0
KPT1 081245Z 23006KT 10/02 A2993 RMK A01 T00950021  RH  061%=      5-min Rain = 0
KPT1 081250Z 23007KT 10/02 A2993 RMK A01 T00960021  RH  061%=      5-min Rain = 0
KPT1 081255Z 23009KT 10/02 A2992 RMK A01 T00960022  RH  061%=      5-min Rain = 0
KPT1 081300Z 23009KT 09/02 A2992 RMK A01 T00940022  RH  062%=      5-min Rain = 0
KPT1 081305Z 23007G12KT 09/02 A2992 RMK A01 T00930022  RH  062%=      5-min Rain = 0
KPT1 081310Z 23008G13KT 09/02 A2992 RMK A01 T00940022  RH  062%=      5-min Rain = 0
KPT1 081315Z 22008KT 09/02 A2992 RMK A01 T00930022  RH  062%=      5-min Rain = 0
KPT1 081320Z 23007KT 09/02 A2992 RMK A01 T00910022  RH  063%=      5-min Rain = 0
KPT1 081325Z 22006KT 09/02 A2992 RMK A01 T00910023  RH  063%=      5-min Rain = 0
KPT1 081330Z 21005KT 09/02 A2992 RMK A01 T00930023  RH  063%=      5-min Rain = 0
KPT1 081335Z 20003KT 10/02 A2992 RMK A01 T00950023  RH  062%=      5-min Rain = 0
KPT1 081340Z 22005KT 10/02 A2992 RMK A01 T00970023  RH  061%=      5-min Rain = 0
KPT1 081345Z 22005KT 10/02 A2992 RMK A01 T00980024  RH  061%=      5-min Rain = 0
KPT1 081350Z 22006KT 10/02 A2992 RMK A01 T00980024  RH  061%=      5-min Rain = 0
KPT1 081355Z 22005KT 10/03 A2992 RMK A01 T01000025  RH  060%=      5-min Rain = 0
KPT1 081400Z 23006KT 10/03 A2992 RMK A01 T01020025  RH  060%=      5-min Rain = 0
KPT1 081405Z 23006KT 10/03 A2992 RMK A01 T01020026  RH  060%=      5-min Rain = 0
KPT1 081410Z 24005KT 10/03 A2992 RMK A01 T01010025  RH  060%=      5-min Rain = 0
KPT1 081415Z 23008KT 10/03 A2991 RMK A01 T01020025  RH  060%=      5-min Rain = 0
KPT1 081420Z 23009G14KT 10/03 A2991 RMK A01 T01030026  RH  059%=      5-min Rain = 0
KPT1 081425Z 24010KT 11/03 A2991 RMK A01 T01060026  RH  059%=      5-min Rain = 0
KPT1 081430Z 23011KT 11/03 A2991 RMK A01 T01080026  RH  058%=      5-min Rain = 0
KPT1 081435Z 24012KT 11/03 A2991 RMK A01 T01110026  RH  057%=      5-min Rain = 0
KPT1 081440Z 23012G18KT 11/03 A299 RMK A01 T01140027  RH  056%=      5-min Rain = 0
KPT1 081445Z 24014KT 12/03 A299 RMK A01 T01170027  RH  055%=      5-min Rain = 0
KPT1 081450Z 24015KT 12/03 A299 RMK A01 T01200028  RH  054%=      5-min Rain = 0
KPT1 081455Z 24015G20KT 12/03 A299 RMK A01 T01220029  RH  054%=      5-min Rain = 0
KPT1 081500Z 24014KT 13/03 A299 RMK A01 T01250030  RH  053%=      5-min Rain = 0
KPT1 081505Z 24014G19KT 13/03 A299 RMK A01 T01280030  RH  052%=      5-min Rain = 0
KPT1 081510Z 24013KT 13/03 A299 RMK A01 T01300031  RH  052%=      5-min Rain = 0
KPT1 081515Z 25015G21KT 13/03 A299 RMK A01 T01320031  RH  051%=      5-min Rain = 0
KPT1 081520Z 25016G21KT 13/03 A299 RMK A01 T01320030  RH  051%=      5-min Rain = 0
KPT1 081525Z 25016KT 13/03 A299 RMK A01 T01340030  RH  050%=      5-min Rain = 0
KPT1 081530Z 25014KT 14/03 A299 RMK A01 T01360030  RH  050%=      5-min Rain = 0
KPT1 081535Z 24014KT 14/03 A2991 RMK A01 T01420030  RH  048%=      5-min Rain = 0
KPT1 081540Z 24013G19KT 15/03 A2991 RMK A01 T01470031  RH  046%=      5-min Rain = 0
KPT1 081545Z 25014KT 15/03 A2991 RMK A01 T01500031  RH  046%=      5-min Rain = 0
KPT1 081550Z 25013G18KT 16/03 A299 RMK A01 T01550031  RH  044%=      5-min Rain = 0
KPT1 081555Z 26015G21KT 16/03 A2991 RMK A01 T01630031  RH  042%=      5-min Rain = 0
KPT1 081600Z 26016G22KT 17/03 A2991 RMK A01 T01670030  RH  041%=      5-min Rain = 0
KPT1 081605Z 26016G22KT 17/03 A2991 RMK A01 T01700031  RH  040%=      5-min Rain = 0
KPT1 081610Z 25015KT 17/03 A2991 RMK A01 T01710032  RH  040%=      5-min Rain = 0
KPT1 081615Z 25015KT 17/03 A299 RMK A01 T01730031  RH  039%=      5-min Rain = 0
KPT1 081620Z 26016G24KT 18/03 A299 RMK A01 T01800030  RH  037%=      5-min Rain = 0
KPT1 081625Z 26016G22KT 18/03 A299 RMK A01 T01790029  RH  037%=      5-min Rain = 0
KPT1 081630Z 26017G24KT 18/03 A299 RMK A01 T01800029  RH  037%=      5-min Rain = 0
KPT1 081635Z 25016G23KT 18/03 A299 RMK A01 T01820030  RH  037%=      5-min Rain = 0
KPT1 081640Z 26017G23KT 18/03 A299 RMK A01 T01830028  RH  036%=      5-min Rain = 0
KPT1 081645Z 26017G24KT 18/03 A299 RMK A01 T01830028  RH  036%=      5-min Rain = 0
KPT1 081650Z 25015G23KT 18/03 A299 RMK A01 T01840030  RH  036%=      5-min Rain = 0
KPT1 081655Z 25015G22KT 18/03 A299 RMK A01 T01840029  RH  036%=      5-min Rain = 0
KPT1 081700Z 25016G22KT 19/03 A299 RMK A01 T01850029  RH  036%=      5-min Rain = 0
KPT1 081705Z 25017G23KT 19/03 A2989 RMK A01 T01870030  RH  036%=      5-min Rain = 0
KPT1 081710Z 25016G22KT 19/03 A2989 RMK A01 T01890029  RH  035%=      5-min Rain = 0
KPT1 081715Z 25017G22KT 19/03 A2989 RMK A01 T01890028  RH  035%=      5-min Rain = 0
KPT1 081720Z 25015G21KT 19/03 A2989 RMK A01 T01930030  RH  034%=      5-min Rain = 0
KPT1 081725Z 25015KT 19/03 A2989 RMK A01 T01930029  RH  034%=      5-min Rain = 0
KPT1 081730Z 25016G21KT 19/03 A2989 RMK A01 T01920027  RH  034%=      5-min Rain = 0
KPT1 081735Z 25014G20KT 19/03 A2989 RMK A01 T01940028  RH  034%=      5-min Rain = 0
KPT1 081740Z 25015G21KT 20/03 A2989 RMK A01 T01960027  RH  033%=      5-min Rain = 0
KPT1 081745Z 25013G19KT 20/03 A2989 RMK A01 T01970027  RH  033%=      5-min Rain = 0
KPT1 081750Z 26014G19KT 20/03 A2989 RMK A01 T01960027  RH  033%=      5-min Rain = 0
KPT1 081755Z 25014G19KT 20/03 A2988 RMK A01 T02000027  RH  032%=      5-min Rain = 0
KPT1 081800Z 25013G20KT 20/03 A2988 RMK A01 T02000027  RH  032%=      5-min Rain = 0
KPT1 081805Z 25014KT 20/03 A2988 RMK A01 T02000027  RH  032%=      5-min Rain = 0
KPT1 081810Z 24015KT 20/03 A2987 RMK A01 T01990027  RH  032%=      5-min Rain = 0
KPT1 081815Z 24013G19KT 20/03 A2986 RMK A01 T02020027  RH  032%=      5-min Rain = 0
KPT1 081820Z 24015G23KT 21/03 A2986 RMK A01 T02050027  RH  031%=      5-min Rain = 0
KPT1 081825Z 24014KT 21/03 A2986 RMK A01 T02050027  RH  031%=      5-min Rain = 0
KPT1 081830Z 24015KT 21/03 A2985 RMK A01 T02070029  RH  031%=      5-min Rain = 0
KPT1 081835Z 24015G21KT 21/03 A2985 RMK A01 T02080028  RH  031%=      5-min Rain = 0
KPT1 081840Z 24014G20KT 21/03 A2985 RMK A01 T02090027  RH  030%=      5-min Rain = 0
KPT1 081845Z 24013G20KT 21/03 A2985 RMK A01 T02110029  RH  031%=      5-min Rain = 0
KPT1 081850Z 24015G20KT 22/03 A2984 RMK A01 T02150029  RH  030%=      5-min Rain = 0
KPT1 081855Z 23014G20KT 22/03 A2984 RMK A01 T02170029  RH  029%=      5-min Rain = 0
KPT1 081900Z 23013G19KT 22/03 A2984 RMK A01 T02220031  RH  029%=      5-min Rain = 0
KPT1 081905Z 24015G20KT 22/03 A2983 RMK A01 T02160030  RH  030%=      5-min Rain = 0
KPT1 081910Z 24016KT 21/03 A2983 RMK A01 T02140029  RH  030%=      5-min Rain = 0
KPT1 081915Z 23015KT 21/03 A2983 RMK A01 T02140031  RH  030%=      5-min Rain = 0
KPT1 081920Z 23015G20KT 22/03 A2983 RMK A01 T02160031  RH  030%=      5-min Rain = 0
KPT1 081925Z 23014G21KT 22/03 A2983 RMK A01 T02210032  RH  030%=      5-min Rain = 0
KPT1 081930Z 23015G20KT 22/03 A2982 RMK A01 T02230032  RH  029%=      5-min Rain = 0
KPT1 081935Z 23015KT 23/03 A2982 RMK A01 T02290032  RH  028%=      5-min Rain = 0
KPT1 081940Z 24014G24KT 23/03 A2982 RMK A01 T02300030  RH  028%=      5-min Rain = 0
KPT1 081945Z 24017G24KT 23/03 A2982 RMK A01 T02310028  RH  027%=      5-min Rain = 0
KPT1 081950Z 24017G23KT 23/03 A2981 RMK A01 T02290026  RH  027%=      5-min Rain = 0
KPT1 081955Z 24017G23KT 23/03 A2981 RMK A01 T02290027  RH  027%=      5-min Rain = 0
KPT1 082000Z 24015G24KT 23/03 A2981 RMK A01 T02310026  RH  027%=      5-min Rain = 0
KPT1 082005Z 24016G21KT 23/03 A2981 RMK A01 T02330025  RH  026%=      5-min Rain = 0
KPT1 082010Z 24016G22KT 23/02 A2981 RMK A01 T02330024  RH  026%=      5-min Rain = 0
KPT1 082015Z 24018G25KT 23/02 A2981 RMK A01 T02340023  RH  025%=      5-min Rain = 0
KPT1 082020Z 25015KT 24/02 A2981 RMK A01 T02350024  RH  026%=      5-min Rain = 0
KPT1 082025Z 24016G21KT 24/02 A2981 RMK A01 T02360024  RH  025%=      5-min Rain = 0
KPT1 082030Z 24015G22KT 24/02 A298 RMK A01 T02350024  RH  026%=      5-min Rain = 0
KPT1 082035Z 24015G22KT 23/02 A298 RMK A01 T02320024  RH  026%=      5-min Rain = 0
KPT1 082040Z 24015G23KT 23/02 A298 RMK A01 T02320024  RH  026%=      5-min Rain = 0
KPT1 082045Z 24017KT 23/02 A298 RMK A01 T02330024  RH  026%=      5-min Rain = 0
KPT1 082050Z 24015G23KT 23/02 A298 RMK A01 T02310024  RH  026%=      5-min Rain = 0
KPT1 082055Z 24018G23KT 23/02 A298 RMK A01 T02290024  RH  026%=      5-min Rain = 0
KPT1 082100Z 24015G22KT 23/02 A298 RMK A01 T02290024  RH  026%=      5-min Rain = 0
KPT1 082105Z 24014KT 23/03 A298 RMK A01 T02300025  RH  026%=      5-min Rain = 0
KPT1 082110Z 24015G21KT 23/03 A298 RMK A01 T02290025  RH  027%=      5-min Rain = 0
KPT1 082115Z 24015G22KT 23/03 A298 RMK A01 T02300025  RH  026%=      5-min Rain = 0
KPT1 082120Z 24014G19KT 23/03 A2979 RMK A01 T02330026  RH  026%=      5-min Rain = 0
KPT1 082125Z 25014G23KT 23/03 A298 RMK A01 T02300026  RH  027%=      5-min Rain = 0
KPT1 082130Z 24015G20KT 23/03 A298 RMK A01 T02280026  RH  027%=      5-min Rain = 0
KPT1 082135Z 24015G22KT 23/03 A298 RMK A01 T02260026  RH  027%=      5-min Rain = 0
KPT1 082140Z 24016G22KT 22/03 A2979 RMK A01 T02240026  RH  028%=      5-min Rain = 0
KPT1 082145Z 24014G19KT 22/03 A2979 RMK A01 T02240026  RH  028%=      5-min Rain = 0
KPT1 082150Z 24014KT 22/03 A2979 RMK A01 T02230027  RH  028%=      5-min Rain = 0
KPT1 082155Z 24014G19KT 22/03 A2979 RMK A01 T02230027  RH  028%=      5-min Rain = 0
KPT1 082200Z 24012G17KT 22/03 A2979 RMK A01 T02220028  RH  028%=      5-min Rain = 0
KPT1 082205Z 24012KT 22/03 A2979 RMK A01 T02210029  RH  029%=      5-min Rain = 0
KPT1 082210Z 24012KT 22/03 A2979 RMK A01 T02200029  RH  029%=      5-min Rain = 0
KPT1 082215Z 24010KT 22/03 A2978 RMK A01 T02190029  RH  029%=      5-min Rain = 0
KPT1 082220Z 23011KT 22/03 A2978 RMK A01 T02180029  RH  029%=      5-min Rain = 0
KPT1 082225Z 23010KT 22/03 A2978 RMK A01 T02170030  RH  030%=      5-min Rain = 0
KPT1 082230Z 23012KT 22/03 A2978 RMK A01 T02160030  RH  030%=      5-min Rain = 0
KPT1 082235Z 23010KT 22/03 A2979 RMK A01 T02160032  RH  030%=      5-min Rain = 0
KPT1 082240Z 24013KT 22/03 A2979 RMK A01 T02160032  RH  030%=      5-min Rain = 0
KPT1 082245Z 24012KT 22/03 A2979 RMK A01 T02150032  RH  031%=      5-min Rain = 0
KPT1 082250Z 24011G17KT 21/03 A2979 RMK A01 T02140033  RH  031%=      5-min Rain = 0
KPT1 082255Z 24012KT 21/03 A2979 RMK A01 T02130033  RH  031%=      5-min Rain = 0
KPT1 082300Z 24010G15KT 21/03 A2979 RMK A01 T02120033  RH  031%=      5-min Rain = 0
KPT1 082305Z 24011KT 21/03 A298 RMK A01 T02110033  RH  032%=      5-min Rain = 0
KPT1 082310Z 25010KT 21/03 A298 RMK A01 T02090034  RH  032%=      5-min Rain = 0
KPT1 082315Z 25010KT 21/03 A298 RMK A01 T02060034  RH  033%=      5-min Rain = 0
KPT1 082320Z 25009KT 20/03 A2979 RMK A01 T02040034  RH  033%=      5-min Rain = 0
KPT1 082325Z 25008G13KT 20/03 A2979 RMK A01 T02030034  RH  033%=      5-min Rain = 0
KPT1 082330Z 25008KT 20/04 A2979 RMK A01 T02000035  RH  034%=      5-min Rain = 0
KPT1 082335Z 25009KT 20/04 A298 RMK A01 T01980035  RH  034%=      5-min Rain = 0
KPT1 082340Z 25008KT 20/04 A2979 RMK A01 T01980035  RH  035%=      5-min Rain = 0
KPT1 082345Z 25007KT 20/04 A2979 RMK A01 T01950035  RH  035%=      5-min Rain = 0
KPT1 082350Z 23006KT 19/04 A298 RMK A01 T01930035  RH  036%=      5-min Rain = 0
KPT1 082355Z 21005KT 19/04 A298 RMK A01 T01880035  RH  037%=      5-min Rain = 0
KPT1 090000Z 24005KT 19/04 A298 RMK A01 T01880035  RH  037%=      5-min Rain = 0
KPT1 090005Z 23005KT 19/04 A2979 RMK A01 T01850036  RH  038%=      5-min Rain = 0
KPT1 090010Z 23005KT 18/04 A2979 RMK A01 T01820036  RH  039%=      5-min Rain = 0
KPT1 090015Z 23006KT 18/04 A298 RMK A01 T01810037  RH  039%=      5-min Rain = 0
KPT1 090020Z 23006KT 18/04 A298 RMK A01 T01810037  RH  039%=      5-min Rain = 0
KPT1 090025Z 23005KT 18/04 A298 RMK A01 T01800038  RH  040%=      5-min Rain = 0
KPT1 090030Z 23005KT 18/04 A298 RMK A01 T01770038  RH  040%=      5-min Rain = 0
KPT1 090035Z 24005KT 18/04 A298 RMK A01 T01760039  RH  041%=      5-min Rain = 0
KPT1 090040Z 25005KT 17/04 A298 RMK A01 T01740039  RH  041%=      5-min Rain = 0
KPT1 090045Z 26005KT 17/04 A2979 RMK A01 T01680039  RH  043%=      5-min Rain = 0
KPT1 090050Z 25006KT 16/04 A298 RMK A01 T01640041  RH  045%=      5-min Rain = 0
KPT1 090055Z 25006KT 16/04 A298 RMK A01 T01600042  RH  046%=      5-min Rain = 0
KPT1 090100Z 24006KT 16/04 A298 RMK A01 T01620042  RH  046%=      5-min Rain = 0
KPT1 090105Z 24005KT 16/04 A298 RMK A01 T01600042  RH  046%=      5-min Rain = 0
KPT1 090110Z 25005KT 16/04 A298 RMK A01 T01570042  RH  047%=      5-min Rain = 0
KPT1 090115Z 26005KT 15/04 A298 RMK A01 T01520042  RH  049%=      5-min Rain = 0
KPT1 090120Z 27006KT 15/04 A298 RMK A01 T01500043  RH  050%=      5-min Rain = 0
KPT1 090125Z 27007KT 15/04 A298 RMK A01 T01520043  RH  049%=      5-min Rain = 0
KPT1 090130Z 27009KT 16/04 A2981 RMK A01 T01560043  RH  048%=      5-min Rain = 0
KPT1 090135Z 26008KT 16/04 A2981 RMK A01 T01600043  RH  047%=      5-min Rain = 0
KPT1 090140Z 25008KT 16/04 A2981 RMK A01 T01580043  RH  047%=      5-min Rain = 0
KPT1 090145Z 25008KT 16/04 A2981 RMK A01 T01560043  RH  048%=      5-min Rain = 0
KPT1 090150Z 25008KT 15/04 A2982 RMK A01 T01540043  RH  049%=      5-min Rain = 0
KPT1 090155Z 25007KT 15/04 A2982 RMK A01 T01530043  RH  049%=      5-min Rain = 0
KPT1 090200Z 24008KT 15/04 A2981 RMK A01 T01530043  RH  049%=      5-min Rain = 0
KPT1 090205Z 24009KT 16/04 A2981 RMK A01 T01550044  RH  049%=      5-min Rain = 0
KPT1 090210Z 24009KT 16/04 A2981 RMK A01 T01590044  RH  047%=      5-min Rain = 0
KPT1 090215Z 25008KT 16/05 A2981 RMK A01 T01550045  RH  049%=      5-min Rain = 0
KPT1 090220Z 25008KT 15/05 A2981 RMK A01 T01520046  RH  050%=      5-min Rain = 0
KPT1 090225Z 27008G13KT 15/05 A2982 RMK A01 T01490045  RH  051%=      5-min Rain = 0
KPT1 090230Z 27010KT 15/04 A2982 RMK A01 T01540043  RH  049%=      5-min Rain = 0
KPT1 090235Z 27011KT 16/04 A2983 RMK A01 T01610041  RH  046%=      5-min Rain = 0
KPT1 090240Z 26010KT 16/04 A2983 RMK A01 T01630039  RH  044%=      5-min Rain = 0
KPT1 090245Z 25010KT 16/04 A2982 RMK A01 T01630039  RH  044%=      5-min Rain = 0
KPT1 090250Z 25009KT 16/04 A2981 RMK A01 T01580040  RH  046%=      5-min Rain = 0
KPT1 090255Z 25009KT 15/04 A2982 RMK A01 T01540040  RH  047%=      5-min Rain = 0
KPT1 090300Z 26010KT 15/04 A2982 RMK A01 T01540040  RH  048%=      5-min Rain = 0
KPT1 090305Z 26010KT 15/04 A2983 RMK A01 T01530041  RH  048%=      5-min Rain = 0
KPT1 090310Z 26011KT 16/04 A2982 RMK A01 T01550040  RH  047%=      5-min Rain = 0
KPT1 090315Z 26010KT 16/04 A2982 RMK A01 T01550040  RH  047%=      5-min Rain = 0
KPT1 090320Z 26010KT 15/04 A2982 RMK A01 T01530040  RH  048%=      5-min Rain = 0
KPT1 090325Z 26011KT 15/04 A2982 RMK A01 T01520040  RH  048%=      5-min Rain = 0
KPT1 090330Z 26010KT 15/04 A2982 RMK A01 T01490040  RH  049%=      5-min Rain = 0
KPT1 090335Z 26010KT 15/04 A2982 RMK A01 T01480040  RH  049%=      5-min Rain = 0
KPT1 090340Z 27010KT 15/04 A2983 RMK A01 T01480040  RH  049%=      5-min Rain = 0
KPT1 090345Z 27010KT 15/04 A2983 RMK A01 T01480039  RH  049%=      5-min Rain = 0
KPT1 090350Z 26010KT 15/04 A2983 RMK A01 T01480039  RH  049%=      5-min Rain = 0
KPT1 090355Z 25010KT 15/04 A2983 RMK A01 T01450040  RH  050%=      5-min Rain = 0
KPT1 090400Z 25009KT 14/04 A2983 RMK A01 T01430041  RH  051%=      5-min Rain = 0
KPT1 090405Z 26009KT 14/04 A2982 RMK A01 T01430041  RH  051%=      5-min Rain = 0
KPT1 090410Z 26009KT 14/04 A2982 RMK A01 T01400040  RH  052%=      5-min Rain = 0
KPT1 090415Z 25008KT 14/04 A2982 RMK A01 T01380041  RH  053%=      5-min Rain = 0
KPT1 090420Z 25010KT 14/04 A2982 RMK A01 T01380041  RH  053%=      5-min Rain = 0
KPT1 090425Z 25010KT 14/04 A2982 RMK A01 T01390040  RH  052%=      5-min Rain = 0
KPT1 090430Z 25011KT 14/04 A2982 RMK A01 T01400040  RH  052%=      5-min Rain = 0
KPT1 090435Z 25011KT 14/04 A2982 RMK A01 T01410040  RH  051%=      5-min Rain = 0
KPT1 090440Z 25010KT 14/04 A2982 RMK A01 T01430039  RH  051%=      5-min Rain = 0
KPT1 090445Z 25011KT 14/04 A2982 RMK A01 T01440038  RH  050%=      5-min Rain = 0
KPT1 090450Z 25011KT 15/04 A2982 RMK A01 T01450037  RH  049%=      5-min Rain = 0
KPT1 090455Z 25011KT 15/04 A2982 RMK A01 T01460037  RH  049%=      5-min Rain = 0
KPT1 090500Z 25011KT 15/04 A2982 RMK A01 T01470036  RH  048%=      5-min Rain = 0
KPT1 090505Z 25011KT 15/04 A2982 RMK A01 T01480036  RH  048%=      5-min Rain = 0
KPT1 090510Z 25010KT 15/04 A2982 RMK A01 T01490036  RH  047%=      5-min Rain = 0
KPT1 090515Z 24010KT 15/04 A2982 RMK A01 T01520035  RH  046%=      5-min Rain = 0
KPT1 090520Z 24010KT 15/04 A2982 RMK A01 T01530035  RH  046%=      5-min Rain = 0
KPT1 090525Z 24010KT 15/04 A2983 RMK A01 T01530035  RH  046%=      5-min Rain = 0
KPT1 090530Z 24011KT 15/03 A2982 RMK A01 T01540034  RH  045%=      5-min Rain = 0
KPT1 090535Z 25011KT 15/03 A2982 RMK A01 T01540033  RH  045%=      5-min Rain = 0
KPT1 090540Z 25012G17KT 16/03 A2982 RMK A01 T01550033  RH  044%=      5-min Rain = 0
KPT1 090545Z 25012G17KT 16/03 A2982 RMK A01 T01560032  RH  044%=      5-min Rain = 0
KPT1 090550Z 25012G18KT 16/03 A2982 RMK A01 T01570032  RH  044%=      5-min Rain = 0
KPT1 090555Z 25013G19KT 16/03 A2982 RMK A01 T01560031  RH  044%=      5-min Rain = 0

Page generated in 0.0091 seconds.